createdAt,value
2022-10-23T00:01:26.993Z,16.08
2022-10-23T00:03:56.355Z,15.43
2022-10-23T00:06:24.234Z,17.00
2022-10-23T00:08:51.178Z,15.93
2022-10-23T00:11:22.194Z,15.30
2022-10-23T00:13:49.517Z,16.33
2022-10-23T00:16:16.636Z,15.43
2022-10-23T00:18:44.206Z,16.42
2022-10-23T00:21:11.837Z,16.35
2022-10-23T00:23:39.113Z,15.85
2022-10-23T00:26:08.078Z,15.02
2022-10-23T00:28:35.055Z,14.93
2022-10-23T00:31:03.254Z,15.05
2022-10-23T00:33:30.506Z,15.88
2022-10-23T00:35:57.417Z,15.18
2022-10-23T00:38:24.318Z,15.52
2022-10-23T00:40:51.795Z,15.13
2022-10-23T00:43:29.439Z,16.67
2022-10-23T00:45:56.888Z,17.33
2022-10-23T00:48:24.237Z,16.80
2022-10-23T00:50:51.119Z,15.98
2022-10-23T00:53:19.770Z,16.10
2022-10-23T00:55:49.384Z,15.93
2022-10-23T00:58:19.878Z,16.75
2022-10-23T01:03:17.083Z,15.32
2022-10-23T01:05:52.773Z,14.65
2022-10-23T01:08:29.830Z,15.43
2022-10-23T01:11:05.479Z,14.80
2022-10-23T01:13:39.074Z,14.32
2022-10-23T01:16:12.206Z,14.95
2022-10-23T01:18:54.149Z,16.00
2022-10-23T01:21:27.420Z,15.60
2022-10-23T01:24:25.934Z,16.25
2022-10-23T01:27:21.446Z,14.70
2022-10-23T01:30:08.805Z,13.93
2022-10-23T01:32:53.182Z,14.73
2022-10-23T01:35:24.893Z,14.15
2022-10-23T01:38:11.358Z,14.63
2022-10-23T01:40:49.477Z,14.80
2022-10-23T01:43:24.494Z,15.00
2022-10-23T01:45:59.572Z,14.52
2022-10-23T01:48:29.365Z,15.45
2022-10-23T01:50:59.342Z,14.73
2022-10-23T01:53:30.647Z,14.65
2022-10-23T01:55:59.329Z,14.55
2022-10-23T01:58:27.501Z,14.02
2022-10-23T02:00:57.023Z,14.68
2022-10-23T02:03:24.611Z,14.50
2022-10-23T02:05:51.561Z,13.95
2022-10-23T02:08:18.531Z,13.10
2022-10-23T02:11:08.396Z,14.50
2022-10-23T02:13:41.149Z,13.57
2022-10-23T02:16:31.978Z,14.90
2022-10-23T02:19:07.874Z,14.45
2022-10-23T02:21:56.134Z,14.63
2022-10-23T02:24:34.431Z,15.32
2022-10-23T02:27:12.440Z,15.55
2022-10-23T02:29:48.773Z,14.27
2022-10-23T02:32:19.169Z,15.48
2022-10-23T02:37:14.554Z,15.98
2022-10-23T02:39:41.626Z,15.52
2022-10-23T02:42:30.010Z,15.05
2022-10-23T02:45:10.010Z,14.75
2022-10-23T02:48:28.278Z,16.07
2022-10-23T02:51:11.075Z,14.55
2022-10-23T02:53:45.498Z,15.75
2022-10-23T02:56:29.093Z,15.65
2022-10-23T02:59:08.812Z,16.77
2022-10-23T03:01:42.627Z,15.97
2022-10-23T03:04:10.726Z,15.88
2022-10-23T03:06:37.693Z,18.05
2022-10-23T03:09:07.808Z,15.95
2022-10-23T03:11:35.193Z,16.77
2022-10-23T03:14:02.974Z,17.15
2022-10-23T03:16:30.038Z,16.75
2022-10-23T03:18:57.197Z,16.42
2022-10-23T03:21:24.167Z,16.50
2022-10-23T03:23:51.381Z,16.48
2022-10-23T03:26:19.522Z,16.35
2022-10-23T03:28:46.373Z,16.52
2022-10-23T03:31:14.930Z,16.20
2022-10-23T03:33:42.918Z,17.10
2022-10-23T03:36:10.476Z,16.52
2022-10-23T03:38:37.370Z,15.77
2022-10-23T03:41:04.746Z,14.63
2022-10-23T03:43:31.637Z,16.52
2022-10-23T03:45:58.742Z,17.90
2022-10-23T03:48:25.973Z,17.92
2022-10-23T03:50:57.625Z,17.37
2022-10-23T03:53:24.471Z,18.15
2022-10-23T03:55:51.601Z,16.50
2022-10-23T03:58:18.484Z,17.92
2022-10-23T04:00:45.764Z,16.80
2022-10-23T04:03:12.944Z,16.37
2022-10-23T04:05:41.462Z,16.25
2022-10-23T04:08:08.731Z,16.37
2022-10-23T04:10:35.910Z,15.07
2022-10-23T04:13:02.773Z,15.25
2022-10-23T04:15:32.883Z,14.77
2022-10-23T04:18:01.586Z,14.10
2022-10-23T04:20:30.848Z,14.30
2022-10-23T04:23:01.307Z,15.65
2022-10-23T04:25:28.449Z,15.32
2022-10-23T04:27:55.318Z,14.38
2022-10-23T04:30:22.487Z,14.15
2022-10-23T04:32:51.469Z,13.38
2022-10-23T04:35:19.169Z,12.55
2022-10-23T04:37:46.651Z,13.82
2022-10-23T04:40:13.566Z,13.15
2022-10-23T04:42:40.586Z,13.55
2022-10-23T04:45:08.069Z,13.70
2022-10-23T04:47:35.730Z,12.43
2022-10-23T04:50:02.724Z,11.55
2022-10-23T04:52:35.116Z,11.70
2022-10-23T04:55:02.211Z,10.80
2022-10-23T04:57:29.474Z,11.32
2022-10-23T04:59:57.970Z,12.10
2022-10-23T05:02:24.998Z,9.90
2022-10-23T05:04:52.139Z,9.43
2022-10-23T05:09:53.929Z,10.55
2022-10-23T05:12:21.133Z,9.55
2022-10-23T05:14:47.994Z,12.00
2022-10-23T05:17:22.065Z,14.40
2022-10-23T05:19:55.017Z,9.82
2022-10-23T05:22:24.829Z,8.40
2022-10-23T05:24:52.230Z,10.05
2022-10-23T05:27:19.905Z,7.65
2022-10-23T05:29:46.941Z,10.45
2022-10-23T05:32:17.602Z,8.68
2022-10-23T05:34:44.697Z,9.05
2022-10-23T05:37:13.487Z,9.77
2022-10-23T05:39:40.677Z,10.52
2022-10-23T05:42:08.206Z,15.15
2022-10-23T05:44:35.542Z,12.20
2022-10-23T05:47:02.945Z,9.88
2022-10-23T05:49:31.316Z,8.98
2022-10-23T05:52:06.714Z,9.60
2022-10-23T05:54:37.409Z,9.40
2022-10-23T05:57:04.498Z,10.05
2022-10-23T05:59:34.668Z,11.48
2022-10-23T06:02:05.199Z,12.02
2022-10-23T06:04:34.569Z,10.85
2022-10-23T06:07:04.627Z,12.70
2022-10-23T06:09:32.034Z,14.38
2022-10-23T06:12:01.349Z,12.48
2022-10-23T06:14:28.338Z,9.50
2022-10-23T06:16:55.234Z,8.57
2022-10-23T06:19:23.591Z,8.25
2022-10-23T06:21:51.048Z,7.90
2022-10-23T06:24:18.042Z,8.05
2022-10-23T06:26:45.322Z,9.55
2022-10-23T06:29:14.858Z,7.90
2022-10-23T06:31:42.497Z,8.32
2022-10-23T06:34:11.803Z,7.07
2022-10-23T06:36:38.941Z,6.50
2022-10-23T06:39:07.230Z,6.07
2022-10-23T06:41:42.075Z,6.28
2022-10-23T06:44:10.306Z,6.00
2022-10-23T06:46:39.027Z,6.27
2022-10-23T06:49:09.316Z,7.50
2022-10-23T06:51:36.373Z,7.85
2022-10-23T06:54:08.083Z,8.25
2022-10-23T06:56:37.516Z,8.55
2022-10-23T06:59:07.706Z,8.10
2022-10-23T07:01:35.298Z,8.30
2022-10-23T07:04:02.790Z,8.45
2022-10-23T07:06:30.642Z,7.82
2022-10-23T07:08:59.555Z,7.05
2022-10-23T07:13:56.761Z,6.45
2022-10-23T07:16:24.216Z,6.95
2022-10-23T07:18:59.664Z,6.55
2022-10-23T07:21:32.709Z,6.20
2022-10-23T07:24:02.154Z,6.93
2022-10-23T07:26:30.080Z,7.20
2022-10-23T07:28:57.548Z,6.93
2022-10-23T07:31:28.142Z,6.85
2022-10-23T07:34:11.034Z,6.85
2022-10-23T07:36:38.323Z,7.62
2022-10-23T07:39:06.023Z,8.85
2022-10-23T07:41:33.207Z,8.75
2022-10-23T07:44:00.545Z,6.97
2022-10-23T07:46:27.825Z,7.32
2022-10-23T07:48:54.733Z,7.80
2022-10-23T07:51:22.123Z,7.75
2022-10-23T07:53:49.433Z,8.32
2022-10-23T07:56:21.398Z,7.80
2022-10-23T07:58:55.899Z,7.47
2022-10-23T08:01:34.292Z,7.25
2022-10-23T08:04:01.676Z,6.87
2022-10-23T08:06:29.611Z,7.37
2022-10-23T08:08:59.078Z,6.65
2022-10-23T08:11:30.971Z,6.97
2022-10-23T08:13:58.543Z,6.43
2022-10-23T08:16:25.784Z,6.15
2022-10-23T08:18:58.007Z,5.50
2022-10-23T08:21:24.931Z,6.03
2022-10-23T08:23:59.292Z,4.82
2022-10-23T08:26:29.448Z,4.57
2022-10-23T08:28:58.845Z,4.20
2022-10-23T08:31:26.205Z,3.87
2022-10-23T08:33:54.882Z,4.07
2022-10-23T08:36:26.430Z,4.30
2022-10-23T08:38:55.101Z,4.05
2022-10-23T08:41:25.129Z,4.00
2022-10-23T08:44:07.550Z,4.10
2022-10-23T08:46:38.650Z,4.05
2022-10-23T08:49:24.746Z,4.72
2022-10-23T08:51:55.986Z,4.20
2022-10-23T08:55:00.479Z,4.62
2022-10-23T08:57:34.520Z,4.95
2022-10-23T09:00:06.197Z,4.87
2022-10-23T09:06:08.930Z,5.22
2022-10-23T09:09:03.922Z,4.95
2022-10-23T09:11:46.830Z,4.57
2022-10-23T09:14:32.786Z,5.30
2022-10-23T09:17:11.048Z,4.97
2022-10-23T09:19:38.238Z,4.37
2022-10-23T09:22:05.574Z,4.78
2022-10-23T09:24:36.459Z,5.20
2022-10-23T09:29:36.123Z,5.18
2022-10-23T09:32:06.815Z,5.65
2022-10-23T09:34:35.022Z,5.85
2022-10-23T09:37:05.023Z,5.90
2022-10-23T09:39:36.076Z,5.78
2022-10-23T09:42:26.185Z,6.15
2022-10-23T09:44:54.620Z,6.72
2022-10-23T09:47:24.431Z,8.23
2022-10-23T09:49:53.700Z,8.68
2022-10-23T09:52:35.411Z,10.13
2022-10-23T09:55:14.895Z,14.73
2022-10-23T09:57:43.822Z,15.55
2022-10-23T10:00:26.514Z,18.05
2022-10-23T10:03:04.963Z,20.70
2022-10-23T10:05:37.862Z,21.52
2022-10-23T10:08:20.673Z,23.38
2022-10-23T10:10:58.194Z,24.37
2022-10-23T10:13:45.340Z,27.37
2022-10-23T10:19:19.210Z,26.92
2022-10-23T10:21:51.932Z,26.90
2022-10-23T10:24:23.282Z,26.70
2022-10-23T10:27:35.268Z,27.87
2022-10-23T10:30:19.785Z,26.67
2022-10-23T10:32:59.070Z,29.33
2022-10-23T10:35:56.958Z,28.87
2022-10-23T10:38:35.490Z,26.87
2022-10-23T10:41:23.596Z,25.70
2022-10-23T10:44:05.473Z,26.25
2022-10-23T10:46:42.317Z,21.80
2022-10-23T10:49:24.455Z,15.95
2022-10-23T10:52:10.030Z,17.20
2022-10-23T10:54:45.819Z,17.90
2022-10-23T10:57:29.324Z,18.30
2022-10-23T10:59:59.206Z,20.58
2022-10-23T11:02:29.501Z,19.45
2022-10-23T11:05:10.734Z,17.65
2022-10-23T11:07:43.100Z,13.18
2022-10-23T11:10:16.598Z,9.80
2022-10-23T11:12:45.857Z,9.13
2022-10-23T11:15:29.376Z,8.23
2022-10-23T11:18:13.130Z,7.55
2022-10-23T11:20:58.767Z,8.65
2022-10-23T11:23:48.328Z,8.98
2022-10-23T11:26:46.781Z,8.30
2022-10-23T11:29:42.603Z,8.80
2022-10-23T11:32:25.537Z,10.65
2022-10-23T11:35:14.305Z,10.70
2022-10-23T11:37:41.372Z,10.60
2022-10-23T11:40:08.545Z,11.27
2022-10-23T11:42:41.766Z,10.63
2022-10-23T11:45:28.966Z,12.35
2022-10-23T11:48:14.844Z,11.52
2022-10-23T11:50:44.741Z,11.38
2022-10-23T11:53:33.399Z,11.18
2022-10-23T11:56:04.705Z,9.48
2022-10-23T11:58:45.895Z,12.25
2022-10-23T12:01:31.875Z,11.07
2022-10-23T12:04:03.184Z,11.05
2022-10-23T12:06:33.219Z,10.57
2022-10-23T12:09:08.855Z,10.60
2022-10-23T12:11:46.437Z,10.00
2022-10-23T12:14:28.607Z,9.90
2022-10-23T12:16:55.766Z,8.70
2022-10-23T12:19:25.905Z,8.80
2022-10-23T12:21:54.532Z,8.82
2022-10-23T12:24:39.744Z,8.40
2022-10-23T12:27:41.417Z,8.40
2022-10-23T12:30:19.981Z,8.05
2022-10-23T12:33:22.929Z,8.18
2022-10-23T12:36:04.654Z,8.02
2022-10-23T12:38:35.316Z,9.25
2022-10-23T12:41:11.337Z,8.10
2022-10-23T12:43:38.767Z,7.72
2022-10-23T12:46:37.001Z,7.12
2022-10-23T12:49:13.595Z,7.57
2022-10-23T12:51:40.481Z,7.57
2022-10-23T12:54:21.587Z,7.47
2022-10-23T12:56:49.076Z,7.70
2022-10-23T12:59:18.725Z,8.63
2022-10-23T13:01:48.071Z,8.63
2022-10-23T13:04:38.643Z,9.18
2022-10-23T13:07:05.558Z,7.93
2022-10-23T13:09:39.343Z,8.70
2022-10-23T13:12:08.381Z,8.15
2022-10-23T13:14:38.228Z,8.85
2022-10-23T13:17:09.459Z,9.57
2022-10-23T13:19:37.617Z,8.98
2022-10-23T13:22:21.241Z,9.88
2022-10-23T13:24:55.081Z,9.60
2022-10-23T13:27:30.989Z,9.65
2022-10-23T13:29:58.130Z,10.73
2022-10-23T13:32:28.815Z,10.80
2022-10-23T13:35:04.049Z,9.55
2022-10-23T13:37:37.682Z,10.35
2022-10-23T13:40:09.716Z,10.55
2022-10-23T13:42:36.816Z,9.88
2022-10-23T13:45:04.195Z,9.70
2022-10-23T13:47:31.184Z,10.65
2022-10-23T13:49:58.074Z,11.25
2022-10-23T13:52:25.266Z,9.25
2022-10-23T13:54:52.166Z,9.18
2022-10-23T13:57:19.041Z,8.13
2022-10-23T13:59:46.157Z,8.18
2022-10-23T14:02:20.346Z,7.05
2022-10-23T14:04:48.779Z,7.00
2022-10-23T14:07:15.841Z,8.13
2022-10-23T14:09:42.740Z,9.77
2022-10-23T14:12:09.972Z,9.15
2022-10-23T14:14:36.909Z,11.02
2022-10-23T14:17:06.804Z,12.37
2022-10-23T14:19:34.451Z,10.82
2022-10-23T14:22:04.503Z,10.38
2022-10-23T14:24:34.149Z,10.98
2022-10-23T14:27:04.630Z,10.88
2022-10-23T14:29:34.346Z,10.68
2022-10-23T14:32:04.318Z,11.15
2022-10-23T14:34:31.271Z,11.82
2022-10-23T14:37:08.083Z,11.60
2022-10-23T14:39:35.928Z,12.25
2022-10-23T14:42:02.783Z,17.52
2022-10-23T14:44:29.726Z,17.95
2022-10-23T14:47:01.941Z,14.30
2022-10-23T14:49:29.078Z,13.45
2022-10-23T14:51:56.209Z,13.23
2022-10-23T14:54:23.099Z,13.73
2022-10-23T14:56:50.008Z,14.57
2022-10-23T14:59:17.147Z,13.18
2022-10-23T15:01:48.053Z,16.00
2022-10-23T15:04:15.623Z,15.00
2022-10-23T15:06:43.434Z,15.55
2022-10-23T15:09:10.340Z,15.88
2022-10-23T15:11:37.299Z,15.55
2022-10-23T15:14:04.491Z,14.07
2022-10-23T15:16:31.641Z,12.40
2022-10-23T15:18:58.510Z,12.65
2022-10-23T15:21:25.650Z,13.57
2022-10-23T15:23:54.785Z,13.68
2022-10-23T15:26:23.075Z,14.48
2022-10-23T15:28:55.190Z,15.07
2022-10-23T15:31:43.299Z,13.40
2022-10-23T15:34:12.894Z,15.15
2022-10-23T15:36:40.087Z,14.48
2022-10-23T15:39:09.146Z,13.50
2022-10-23T15:41:37.987Z,14.15
2022-10-23T15:44:06.413Z,14.27
2022-10-23T15:46:33.506Z,15.20
2022-10-23T15:49:00.824Z,15.18
2022-10-23T15:51:27.767Z,14.70
2022-10-23T15:53:54.659Z,13.88
2022-10-23T15:56:21.753Z,14.00
2022-10-23T15:58:48.589Z,13.70
2022-10-23T16:01:15.662Z,12.52
2022-10-23T16:03:42.992Z,8.95
2022-10-23T16:06:12.481Z,8.68
2022-10-23T16:08:39.870Z,8.93
2022-10-23T16:11:15.570Z,8.07
2022-10-23T16:13:43.609Z,8.43
2022-10-23T16:16:11.142Z,8.45
2022-10-23T16:18:38.332Z,11.73
2022-10-23T16:21:05.406Z,7.18
2022-10-23T16:23:33.537Z,5.70
2022-10-23T16:26:04.934Z,4.53
2022-10-23T16:28:32.141Z,4.05
2022-10-23T16:30:59.161Z,3.90
2022-10-23T16:33:26.129Z,4.55
2022-10-23T16:35:53.247Z,4.07
2022-10-23T16:38:21.441Z,4.07
2022-10-23T16:40:52.835Z,4.57
2022-10-23T16:43:24.136Z,3.87
2022-10-23T16:46:14.050Z,3.85
2022-10-23T16:48:41.976Z,4.85
2022-10-23T16:51:11.306Z,4.93
2022-10-23T16:53:39.012Z,7.53
2022-10-23T16:56:08.009Z,7.32
2022-10-23T16:58:35.176Z,6.37
2022-10-23T17:01:07.529Z,6.68
2022-10-23T17:03:36.740Z,6.80
2022-10-23T17:06:07.373Z,6.75
2022-10-23T17:08:37.542Z,7.72
2022-10-23T17:11:12.259Z,6.22
2022-10-23T17:13:45.034Z,6.15
2022-10-23T17:16:14.567Z,6.10
2022-10-23T17:18:44.025Z,5.53
2022-10-23T17:21:14.774Z,7.40
2022-10-23T17:23:41.925Z,5.72
2022-10-23T17:26:10.847Z,6.12
2022-10-23T17:28:40.473Z,7.35
2022-10-23T17:31:19.294Z,7.65
2022-10-23T17:33:46.735Z,7.30
2022-10-23T17:36:15.595Z,7.03
2022-10-23T17:38:46.025Z,7.30
2022-10-23T17:41:14.654Z,6.78
2022-10-23T17:43:42.478Z,6.78
2022-10-23T17:46:10.227Z,9.80
2022-10-23T17:48:39.285Z,10.23
2022-10-23T17:51:19.198Z,10.02
2022-10-23T17:53:48.813Z,7.00
2022-10-23T17:56:29.539Z,8.50
2022-10-23T17:59:00.821Z,7.97
2022-10-23T18:01:29.419Z,7.70
2022-10-23T18:03:59.357Z,7.05
2022-10-23T18:06:29.807Z,7.12
2022-10-23T18:08:57.142Z,7.32
2022-10-23T18:11:26.661Z,8.45
2022-10-23T18:13:54.367Z,6.47
2022-10-23T18:16:21.547Z,7.97
2022-10-23T18:18:48.853Z,7.57
2022-10-23T18:21:16.813Z,6.40
2022-10-23T18:23:44.353Z,6.25
2022-10-23T18:26:24.069Z,5.70
2022-10-23T18:28:53.082Z,6.18
2022-10-23T18:31:20.853Z,6.80
2022-10-23T18:33:47.878Z,7.30
2022-10-23T18:36:23.941Z,5.95
2022-10-23T18:38:51.252Z,6.40
2022-10-23T18:41:19.130Z,6.53
2022-10-23T18:43:46.449Z,7.18
2022-10-23T18:46:13.874Z,6.55
2022-10-23T18:48:41.791Z,5.87
2022-10-23T18:51:23.777Z,6.93
2022-10-23T18:53:51.392Z,6.95
2022-10-23T18:56:24.199Z,7.00
2022-10-23T18:58:55.684Z,6.93
2022-10-23T19:01:24.110Z,6.45
2022-10-23T19:03:51.589Z,8.45
2022-10-23T19:06:20.054Z,12.20
2022-10-23T19:08:47.079Z,11.90
2022-10-23T19:11:15.916Z,9.52
2022-10-23T19:13:43.075Z,9.05
2022-10-23T19:16:14.507Z,7.87
2022-10-23T19:18:45.579Z,7.55
2022-10-23T19:21:12.831Z,7.65
2022-10-23T19:23:41.145Z,10.15
2022-10-23T19:26:11.862Z,10.43
2022-10-23T19:31:10.730Z,9.35
2022-10-23T19:33:38.986Z,10.82
2022-10-23T19:36:11.235Z,10.43
2022-10-23T19:38:41.978Z,10.35
2022-10-23T19:41:08.898Z,10.73
2022-10-23T19:43:37.695Z,11.32
2022-10-23T19:46:09.262Z,10.43
2022-10-23T19:48:42.395Z,11.25
2022-10-23T19:51:09.795Z,10.35
2022-10-23T19:53:36.682Z,11.82
2022-10-23T19:56:05.315Z,11.45
2022-10-23T19:58:32.474Z,11.30
2022-10-23T20:00:59.567Z,11.90
2022-10-23T20:03:26.802Z,10.32
2022-10-23T20:05:53.680Z,11.73
2022-10-23T20:08:20.517Z,11.07
2022-10-23T20:10:48.021Z,11.27
2022-10-23T20:13:19.827Z,12.18
2022-10-23T20:15:47.509Z,12.32
2022-10-23T20:18:14.360Z,12.43
2022-10-23T20:20:42.006Z,12.40
2022-10-23T20:23:09.208Z,12.43
2022-10-23T20:25:36.100Z,12.45
2022-10-23T20:28:03.510Z,13.48
2022-10-23T20:30:30.858Z,11.48
2022-10-23T20:32:57.870Z,11.98
2022-10-23T20:35:24.718Z,12.23
2022-10-23T20:37:51.871Z,12.93
2022-10-23T20:40:18.719Z,12.88
2022-10-23T20:42:45.584Z,13.18
2022-10-23T20:45:12.696Z,11.32
2022-10-23T20:47:39.818Z,12.52
2022-10-23T20:50:08.521Z,13.10
2022-10-23T20:52:35.645Z,12.10
2022-10-23T20:55:02.498Z,12.48
2022-10-23T20:57:29.394Z,11.27
2022-10-23T20:59:56.509Z,11.48
2022-10-23T21:02:23.432Z,12.10
2022-10-23T21:04:50.500Z,11.80
2022-10-23T21:07:18.201Z,11.95
2022-10-23T21:09:45.085Z,10.82
2022-10-23T21:12:12.013Z,11.27
2022-10-23T21:14:39.154Z,11.07
2022-10-23T21:17:06.243Z,11.48
2022-10-23T21:19:36.622Z,12.65
2022-10-23T21:22:06.848Z,11.50
2022-10-23T21:24:33.689Z,11.68
2022-10-23T21:27:00.521Z,11.48
2022-10-23T21:29:29.414Z,10.82
2022-10-23T21:31:58.501Z,10.45
2022-10-23T21:34:26.091Z,10.70
2022-10-23T21:37:12.324Z,12.18
2022-10-23T21:39:41.524Z,11.00
2022-10-23T21:42:08.817Z,11.40
2022-10-23T21:44:35.688Z,11.02
2022-10-23T21:47:05.671Z,10.43
2022-10-23T21:49:35.607Z,10.10
2022-10-23T21:52:05.431Z,10.75
2022-10-23T21:54:35.294Z,10.10
2022-10-23T21:57:03.426Z,11.27
2022-10-23T21:59:33.100Z,10.13
2022-10-23T22:02:05.537Z,11.15
2022-10-23T22:04:35.897Z,9.82
2022-10-23T22:07:06.550Z,9.68
2022-10-23T22:09:36.673Z,10.27
2022-10-23T22:12:07.067Z,9.55
2022-10-23T22:14:39.040Z,10.02
2022-10-23T22:17:06.311Z,10.40
2022-10-23T22:19:33.162Z,9.90
2022-10-23T22:22:00.297Z,9.85
2022-10-23T22:24:27.467Z,10.10
2022-10-23T22:26:56.282Z,9.10
2022-10-23T22:29:26.360Z,10.80
2022-10-23T22:31:53.308Z,9.48
2022-10-23T22:34:47.796Z,9.32
2022-10-23T22:37:12.920Z,9.15
2022-10-23T22:39:40.278Z,9.90
2022-10-23T22:42:07.580Z,10.02
2022-10-23T22:44:34.718Z,9.85
2022-10-23T22:47:03.864Z,9.95
2022-10-23T22:49:30.744Z,10.02
2022-10-23T22:52:00.359Z,10.23
2022-10-23T22:54:27.252Z,10.13
2022-10-23T22:56:54.110Z,10.30
2022-10-23T22:59:21.209Z,10.20
2022-10-23T23:01:49.075Z,10.60
2022-10-23T23:04:39.515Z,9.77
2022-10-23T23:07:09.941Z,10.57
2022-10-23T23:09:42.181Z,10.15
2022-10-23T23:12:11.082Z,10.38
2022-10-23T23:14:38.464Z,10.55
2022-10-23T23:17:05.657Z,10.43
2022-10-23T23:19:33.058Z,10.77
2022-10-23T23:22:00.029Z,10.60
2022-10-23T23:24:27.030Z,9.95
2022-10-23T23:26:54.141Z,12.10
2022-10-23T23:29:21.659Z,10.98
2022-10-23T23:31:48.522Z,11.30
2022-10-23T23:34:15.673Z,10.95
2022-10-23T23:36:42.521Z,10.95
2022-10-23T23:39:10.394Z,11.50
2022-10-23T23:41:37.854Z,12.20
2022-10-23T23:44:04.790Z,11.98
2022-10-23T23:46:31.638Z,12.18
2022-10-23T23:48:58.745Z,12.57
2022-10-23T23:51:26.292Z,11.57
2022-10-23T23:53:53.193Z,12.02
2022-10-23T23:56:20.721Z,12.77
2022-10-23T23:58:47.613Z,11.80
